createdAt,value
2022-11-14T00:02:02.250Z,9.95
2022-11-14T00:04:48.684Z,10.48
2022-11-14T00:07:34.974Z,11.15
2022-11-14T00:10:20.543Z,10.05
2022-11-14T00:13:05.764Z,10.98
2022-11-14T00:15:55.907Z,10.43
2022-11-14T00:18:41.191Z,9.90
2022-11-14T00:21:26.600Z,10.40
2022-11-14T00:24:12.092Z,9.60
2022-11-14T00:26:57.548Z,10.95
2022-11-14T00:29:43.020Z,10.75
2022-11-14T00:32:28.600Z,10.50
2022-11-14T00:35:14.221Z,10.55
2022-11-14T00:38:00.482Z,10.68
2022-11-14T00:40:46.217Z,10.48
2022-11-14T00:43:31.502Z,10.15
2022-11-14T00:46:16.979Z,10.70
2022-11-14T00:49:01.998Z,10.48
2022-11-14T00:51:47.597Z,10.93
2022-11-14T00:54:32.724Z,12.00
2022-11-14T00:57:17.920Z,11.43
2022-11-14T01:00:04.919Z,11.10
2022-11-14T01:02:50.084Z,11.38
2022-11-14T01:05:41.505Z,11.23
2022-11-14T01:08:27.307Z,10.50
2022-11-14T01:11:19.249Z,11.25
2022-11-14T01:14:07.290Z,10.85
2022-11-14T01:16:52.439Z,11.05
2022-11-14T01:19:37.914Z,11.88
2022-11-14T01:22:23.370Z,11.10
2022-11-14T01:25:08.942Z,11.55
2022-11-14T01:27:54.462Z,11.33
2022-11-14T01:30:40.396Z,11.15
2022-11-14T01:33:26.030Z,11.80
2022-11-14T01:36:11.718Z,11.68
2022-11-14T01:38:57.021Z,12.13
2022-11-14T01:41:42.467Z,12.57
2022-11-14T01:44:57.636Z,12.27
2022-11-14T01:47:43.252Z,13.38
2022-11-14T01:50:28.639Z,13.15
2022-11-14T01:53:14.013Z,13.00
2022-11-14T01:56:04.400Z,13.68
2022-11-14T01:58:54.947Z,13.48
2022-11-14T02:01:48.917Z,12.45
2022-11-14T02:04:39.746Z,13.80
2022-11-14T02:07:27.581Z,13.98
2022-11-14T02:10:18.910Z,13.65
2022-11-14T02:13:04.269Z,14.02
2022-11-14T02:15:50.228Z,14.00
2022-11-14T02:18:35.498Z,15.32
2022-11-14T02:21:21.115Z,15.00
2022-11-14T02:24:10.596Z,15.10
2022-11-14T02:26:55.911Z,15.53
2022-11-14T02:29:41.668Z,15.50
2022-11-14T02:32:26.936Z,14.50
2022-11-14T02:35:12.478Z,16.08
2022-11-14T02:37:58.079Z,16.90
2022-11-14T02:40:43.603Z,15.98
2022-11-14T02:43:29.222Z,15.90
2022-11-14T02:46:14.708Z,15.80
2022-11-14T02:49:00.228Z,15.32
2022-11-14T02:51:45.707Z,16.23
2022-11-14T02:54:31.527Z,16.75
2022-11-14T02:57:16.989Z,17.15
2022-11-14T03:00:02.714Z,16.25
2022-11-14T03:02:47.802Z,15.70
2022-11-14T03:05:33.331Z,15.10
2022-11-14T03:08:19.771Z,14.52
2022-11-14T03:11:06.829Z,17.52
2022-11-14T03:13:52.123Z,18.58
2022-11-14T03:16:37.472Z,20.92
2022-11-14T03:19:22.684Z,20.65
2022-11-14T03:22:08.252Z,20.83
2022-11-14T03:24:53.772Z,19.98
2022-11-14T03:27:39.187Z,19.97
2022-11-14T03:30:24.800Z,16.50
2022-11-14T03:33:10.192Z,17.07
2022-11-14T03:35:55.721Z,16.77
2022-11-14T03:38:41.101Z,17.45
2022-11-14T03:41:26.519Z,19.05
2022-11-14T03:44:12.015Z,21.52
2022-11-14T03:46:57.473Z,21.77
2022-11-14T03:49:45.062Z,20.50
2022-11-14T03:52:30.452Z,21.30
2022-11-14T03:55:15.712Z,19.70
2022-11-14T03:58:01.754Z,20.48
2022-11-14T04:00:47.365Z,19.08
2022-11-14T04:03:32.804Z,20.55
2022-11-14T04:06:18.411Z,21.45
2022-11-14T04:09:03.880Z,21.75
2022-11-14T04:11:49.351Z,21.70
2022-11-14T04:14:35.049Z,20.95
2022-11-14T04:17:20.481Z,19.00
2022-11-14T04:20:06.649Z,22.20
2022-11-14T04:22:52.169Z,20.70
2022-11-14T04:25:37.731Z,22.05
2022-11-14T04:28:23.018Z,21.85
2022-11-14T04:31:08.494Z,21.10
2022-11-14T04:33:54.014Z,20.50
2022-11-14T04:36:39.441Z,21.52
2022-11-14T04:39:24.921Z,18.70
2022-11-14T04:42:10.197Z,19.95
2022-11-14T04:44:55.883Z,19.13
2022-11-14T04:47:42.497Z,20.42
2022-11-14T04:50:27.932Z,19.75
2022-11-14T04:53:13.375Z,18.67
2022-11-14T04:55:58.922Z,19.97
2022-11-14T04:58:44.118Z,20.80
2022-11-14T05:01:29.810Z,23.58
2022-11-14T05:04:15.359Z,22.63
2022-11-14T05:07:00.759Z,21.67
2022-11-14T05:09:46.124Z,22.02
2022-11-14T05:12:31.663Z,22.05
2022-11-14T05:15:17.254Z,22.40
2022-11-14T05:18:03.139Z,20.77
2022-11-14T05:20:48.537Z,21.52
2022-11-14T05:23:34.077Z,20.27
2022-11-14T05:26:19.486Z,22.05
2022-11-14T05:29:05.109Z,22.58
2022-11-14T05:31:50.231Z,18.17
2022-11-14T05:34:35.738Z,20.20
2022-11-14T05:37:21.275Z,22.20
2022-11-14T05:40:07.301Z,22.38
2022-11-14T05:42:55.739Z,22.38
2022-11-14T05:45:40.972Z,22.00
2022-11-14T05:48:26.846Z,22.02
2022-11-14T05:51:13.719Z,21.70
2022-11-14T05:53:59.079Z,22.85
2022-11-14T05:56:44.639Z,21.17
2022-11-14T05:59:30.066Z,22.65
2022-11-14T06:02:15.457Z,20.83
2022-11-14T06:05:00.970Z,21.92
2022-11-14T06:07:46.711Z,22.17
2022-11-14T06:10:34.318Z,21.75
2022-11-14T06:13:19.593Z,21.23
2022-11-14T06:16:11.230Z,22.33
2022-11-14T06:18:57.222Z,21.83
2022-11-14T06:21:42.537Z,22.57
2022-11-14T06:24:28.051Z,22.77
2022-11-14T06:27:13.518Z,21.02
2022-11-14T06:29:58.917Z,21.23
2022-11-14T06:32:44.333Z,19.02
2022-11-14T06:35:29.870Z,21.15
2022-11-14T06:38:15.011Z,21.85
2022-11-14T06:41:07.681Z,22.17
2022-11-14T06:43:54.244Z,21.35
2022-11-14T06:46:39.826Z,20.90
2022-11-14T06:49:25.125Z,20.73
2022-11-14T06:52:10.438Z,20.33
2022-11-14T06:54:55.530Z,20.60
2022-11-14T06:57:41.293Z,20.15
2022-11-14T07:00:26.908Z,20.30
2022-11-14T07:03:12.398Z,20.42
2022-11-14T07:06:01.776Z,19.55
2022-11-14T07:08:46.997Z,19.75
2022-11-14T07:11:33.189Z,20.25
2022-11-14T07:14:18.553Z,20.25
2022-11-14T07:17:06.019Z,19.88
2022-11-14T07:19:51.186Z,19.38
2022-11-14T07:22:36.619Z,19.43
2022-11-14T07:25:23.259Z,20.35
2022-11-14T07:28:08.722Z,15.68
2022-11-14T07:30:53.964Z,19.02
2022-11-14T07:33:40.341Z,19.58
2022-11-14T07:36:25.796Z,15.63
2022-11-14T07:39:11.295Z,19.60
2022-11-14T07:41:56.746Z,19.75
2022-11-14T07:44:42.287Z,21.00
2022-11-14T07:47:27.502Z,19.50
2022-11-14T07:50:17.620Z,19.37
2022-11-14T07:53:05.691Z,20.25
2022-11-14T07:55:51.195Z,14.68
2022-11-14T07:58:38.392Z,19.25
2022-11-14T08:01:24.522Z,20.17
2022-11-14T08:04:10.295Z,18.53
2022-11-14T08:06:55.736Z,18.55
2022-11-14T08:09:41.106Z,14.63
2022-11-14T08:12:26.461Z,17.40
2022-11-14T08:15:14.010Z,18.58
2022-11-14T08:17:59.842Z,16.52
2022-11-14T08:20:45.307Z,19.48
2022-11-14T08:23:30.628Z,16.67
2022-11-14T08:26:16.004Z,17.52
2022-11-14T08:29:01.692Z,18.33
2022-11-14T08:31:47.188Z,19.08
2022-11-14T08:34:32.420Z,17.77
2022-11-14T08:37:17.915Z,13.77
2022-11-14T08:40:04.026Z,14.95
2022-11-14T08:42:49.810Z,16.63
2022-11-14T08:45:35.754Z,15.55
2022-11-14T08:48:20.968Z,15.43
2022-11-14T08:51:07.245Z,16.13
2022-11-14T08:53:52.663Z,15.20
2022-11-14T08:56:38.003Z,15.25
2022-11-14T08:59:23.383Z,13.00
2022-11-14T09:02:13.749Z,15.13
2022-11-14T09:04:59.232Z,15.10
2022-11-14T09:07:44.634Z,14.50
2022-11-14T09:10:30.269Z,14.15
2022-11-14T09:13:16.483Z,13.88
2022-11-14T09:16:02.001Z,13.57
2022-11-14T09:18:47.393Z,13.60
2022-11-14T09:21:32.655Z,14.10
2022-11-14T09:24:18.245Z,13.57
2022-11-14T09:27:04.193Z,12.75
2022-11-14T09:29:49.580Z,12.85
2022-11-14T09:32:35.059Z,13.02
2022-11-14T09:35:20.696Z,12.77
2022-11-14T09:38:11.350Z,11.60
2022-11-14T09:41:05.749Z,11.75
2022-11-14T09:44:06.107Z,12.48
2022-11-14T09:47:03.277Z,11.63
2022-11-14T09:49:50.773Z,11.47
2022-11-14T09:52:37.223Z,11.32
2022-11-14T09:55:30.007Z,11.40
2022-11-14T09:58:20.847Z,10.57
2022-11-14T10:01:29.221Z,10.45
2022-11-14T10:04:20.355Z,10.68
2022-11-14T10:07:14.775Z,10.07
2022-11-14T10:10:00.311Z,10.35
2022-11-14T10:13:00.387Z,10.50
2022-11-14T10:15:56.327Z,10.77
2022-11-14T10:18:53.873Z,10.80
2022-11-14T10:22:07.121Z,11.45
2022-11-14T10:25:10.779Z,10.68
2022-11-14T10:28:14.030Z,11.05
2022-11-14T10:31:05.465Z,10.57
2022-11-14T10:34:13.612Z,10.95
2022-11-14T10:37:31.684Z,11.18
2022-11-14T10:40:21.932Z,10.32
2022-11-14T10:43:29.766Z,10.40
2022-11-14T10:46:17.198Z,10.45
2022-11-14T10:49:03.129Z,10.35
2022-11-14T10:51:54.095Z,11.10
2022-11-14T10:54:47.241Z,9.90
2022-11-14T10:57:33.004Z,11.00
2022-11-14T11:00:22.863Z,11.40
2022-11-14T11:03:09.374Z,11.40
2022-11-14T11:05:57.868Z,11.02
2022-11-14T11:09:02.645Z,11.33
2022-11-14T11:11:59.646Z,10.88
2022-11-14T11:14:50.872Z,11.32
2022-11-14T11:17:41.898Z,11.30
2022-11-14T11:20:34.592Z,11.82
2022-11-14T11:23:25.489Z,11.85
2022-11-14T11:26:21.904Z,11.65
2022-11-14T11:29:10.100Z,12.02
2022-11-14T11:32:00.463Z,10.98
2022-11-14T11:34:46.250Z,11.98
2022-11-14T11:37:48.989Z,12.25
2022-11-14T11:40:34.208Z,11.40
2022-11-14T11:43:40.076Z,11.90
2022-11-14T11:46:42.102Z,11.50
2022-11-14T11:49:30.577Z,11.30
2022-11-14T11:52:41.096Z,12.80
2022-11-14T11:55:32.581Z,12.15
2022-11-14T11:58:33.023Z,12.23
2022-11-14T12:01:19.688Z,11.90
2022-11-14T12:04:04.943Z,12.27
2022-11-14T12:07:04.767Z,12.57
2022-11-14T12:13:12.138Z,12.73
2022-11-14T12:16:39.283Z,13.02
2022-11-14T12:19:24.400Z,12.68
2022-11-14T12:22:31.834Z,13.68
2022-11-14T12:25:26.025Z,13.05
2022-11-14T12:28:24.649Z,12.95
2022-11-14T12:31:14.017Z,13.38
2022-11-14T12:34:25.577Z,13.93
2022-11-14T12:37:26.689Z,13.65
2022-11-14T12:40:48.369Z,14.13
2022-11-14T12:43:38.559Z,13.70
2022-11-14T12:46:24.444Z,15.05
2022-11-14T12:49:37.319Z,15.27
2022-11-14T12:52:40.838Z,16.60
2022-11-14T12:55:26.365Z,19.75
2022-11-14T12:58:29.247Z,22.65
2022-11-14T13:01:14.685Z,25.27
2022-11-14T13:04:20.264Z,26.20
2022-11-14T13:07:41.227Z,28.37
2022-11-14T13:10:38.510Z,29.38
2022-11-14T13:13:42.226Z,27.85
2022-11-14T13:16:50.594Z,29.50
2022-11-14T13:20:03.678Z,28.55
2022-11-14T13:22:49.092Z,30.77
2022-11-14T13:25:34.475Z,28.95
2022-11-14T13:28:38.493Z,31.92
2022-11-14T13:31:45.417Z,30.52
2022-11-14T13:34:51.796Z,33.45
2022-11-14T13:37:49.608Z,32.67
2022-11-14T13:40:59.709Z,33.75
2022-11-14T13:44:04.013Z,31.85
2022-11-14T13:47:03.453Z,32.97
2022-11-14T13:50:08.882Z,32.67
2022-11-14T13:52:55.107Z,30.88
2022-11-14T13:56:04.666Z,31.27
2022-11-14T13:58:53.229Z,33.35
2022-11-14T14:02:03.430Z,30.90
2022-11-14T14:05:47.099Z,32.80
2022-11-14T14:08:47.427Z,26.00
2022-11-14T14:11:47.579Z,31.13
2022-11-14T14:14:38.906Z,27.97
2022-11-14T14:17:56.565Z,31.40
2022-11-14T14:21:05.932Z,30.05
2022-11-14T14:24:06.508Z,29.75
2022-11-14T14:27:03.294Z,28.98
2022-11-14T14:29:58.073Z,30.20
2022-11-14T14:32:43.413Z,29.77
2022-11-14T14:35:37.166Z,29.83
2022-11-14T14:38:28.368Z,28.55
2022-11-14T14:41:16.617Z,29.00
2022-11-14T14:44:02.448Z,26.55
2022-11-14T14:46:48.270Z,29.00
2022-11-14T14:49:38.637Z,27.15
2022-11-14T14:52:32.837Z,29.05
2022-11-14T14:55:25.013Z,28.73
2022-11-14T14:58:38.371Z,25.13
2022-11-14T15:01:35.391Z,25.92
2022-11-14T15:04:23.260Z,24.13
2022-11-14T15:07:21.088Z,26.08
2022-11-14T15:10:08.118Z,27.50
2022-11-14T15:12:54.728Z,26.48
2022-11-14T15:15:40.022Z,24.65
2022-11-14T15:18:33.404Z,25.05
2022-11-14T15:21:23.181Z,25.07
2022-11-14T15:24:21.822Z,25.08
2022-11-14T15:27:20.681Z,26.13
2022-11-14T15:30:19.432Z,24.17
2022-11-14T15:33:07.083Z,25.05
2022-11-14T15:36:17.798Z,24.88
2022-11-14T15:39:30.755Z,24.38
2022-11-14T15:42:21.387Z,24.85
2022-11-14T15:45:39.421Z,24.73
2022-11-14T15:48:24.777Z,24.45
2022-11-14T15:51:10.050Z,24.48
2022-11-14T15:53:55.435Z,25.55
2022-11-14T15:56:40.663Z,24.77
2022-11-14T15:59:27.234Z,27.77
2022-11-14T16:02:22.682Z,24.55
2022-11-14T16:05:12.383Z,25.52
2022-11-14T16:07:58.029Z,24.83
2022-11-14T16:10:43.259Z,26.10
2022-11-14T16:13:28.556Z,26.67
2022-11-14T16:16:14.227Z,26.23
2022-11-14T16:18:59.725Z,25.88
2022-11-14T16:21:44.941Z,25.10
2022-11-14T16:24:33.870Z,25.40
2022-11-14T16:27:19.889Z,25.17
2022-11-14T16:30:05.417Z,24.70
2022-11-14T16:32:51.813Z,24.33
2022-11-14T16:35:37.358Z,24.30
2022-11-14T16:38:22.539Z,24.00
2022-11-14T16:41:14.359Z,23.85
2022-11-14T16:43:59.625Z,23.63
2022-11-14T16:46:45.906Z,24.03
2022-11-14T16:49:31.260Z,24.52
2022-11-14T16:52:17.121Z,25.10
2022-11-14T16:55:02.769Z,24.83
2022-11-14T16:57:49.352Z,25.25
2022-11-14T17:00:35.823Z,24.73
2022-11-14T17:03:21.757Z,25.17
2022-11-14T17:06:10.423Z,25.83
2022-11-14T17:08:56.790Z,25.60
2022-11-14T17:11:42.284Z,24.83
2022-11-14T17:14:27.693Z,24.73
2022-11-14T17:17:13.302Z,25.55
2022-11-14T17:19:58.705Z,24.92
2022-11-14T17:22:43.876Z,25.27
2022-11-14T17:25:30.541Z,24.85
2022-11-14T17:28:16.055Z,25.55
2022-11-14T17:31:07.862Z,26.03
2022-11-14T17:33:55.873Z,26.27
2022-11-14T17:36:41.665Z,24.90
2022-11-14T17:39:27.193Z,23.48
2022-11-14T17:42:12.569Z,24.20
2022-11-14T17:45:00.934Z,25.53
2022-11-14T17:47:46.336Z,24.48
2022-11-14T17:50:37.203Z,25.58
2022-11-14T17:53:23.053Z,24.67
2022-11-14T17:56:14.186Z,25.23
2022-11-14T17:58:59.849Z,25.88
2022-11-14T18:01:46.833Z,24.23
2022-11-14T18:04:32.359Z,24.33
2022-11-14T18:07:20.442Z,24.60
2022-11-14T18:10:06.225Z,25.52
2022-11-14T18:12:51.650Z,24.17
2022-11-14T18:15:39.100Z,24.70
2022-11-14T18:18:24.360Z,25.58
2022-11-14T18:21:15.034Z,25.63
2022-11-14T18:24:00.513Z,25.58
2022-11-14T18:26:45.755Z,26.08
2022-11-14T18:29:31.196Z,25.80
2022-11-14T18:32:16.499Z,25.00
2022-11-14T18:35:01.791Z,24.00
2022-11-14T18:37:47.379Z,23.27
2022-11-14T18:40:32.609Z,24.95
2022-11-14T18:43:17.955Z,22.83
2022-11-14T18:46:15.545Z,24.40
2022-11-14T18:49:01.324Z,23.63
2022-11-14T18:51:47.082Z,23.58
2022-11-14T18:54:32.348Z,24.73
2022-11-14T18:57:17.935Z,23.38
2022-11-14T19:00:04.372Z,23.02
2022-11-14T19:02:50.790Z,22.40
2022-11-14T19:05:36.950Z,21.60
2022-11-14T19:08:22.164Z,21.63
2022-11-14T19:11:30.507Z,21.52
2022-11-14T19:14:16.633Z,21.50
2022-11-14T19:17:02.599Z,20.50
2022-11-14T19:19:53.765Z,21.27
2022-11-14T19:22:39.159Z,20.38
2022-11-14T19:25:24.784Z,19.40
2022-11-14T19:28:10.308Z,19.80
2022-11-14T19:31:01.903Z,19.48
2022-11-14T19:33:47.271Z,18.88
2022-11-14T19:36:58.180Z,18.70
2022-11-14T19:39:39.956Z,19.25
2022-11-14T19:42:25.378Z,17.98
2022-11-14T19:45:10.970Z,17.27
2022-11-14T19:47:56.300Z,18.27
2022-11-14T19:50:41.832Z,17.05
2022-11-14T19:53:27.825Z,17.63
2022-11-14T19:56:17.227Z,18.75
2022-11-14T19:59:03.262Z,16.92
2022-11-14T20:01:55.416Z,17.25
2022-11-14T20:04:41.089Z,16.33
2022-11-14T20:07:26.584Z,16.48
2022-11-14T20:10:11.953Z,16.40
2022-11-14T20:12:57.298Z,15.45
2022-11-14T20:15:42.879Z,15.27
2022-11-14T20:18:29.954Z,15.77
2022-11-14T20:21:18.283Z,16.02
2022-11-14T20:24:03.751Z,15.70
2022-11-14T20:26:49.288Z,16.60
2022-11-14T20:29:35.066Z,16.70
2022-11-14T20:32:20.300Z,17.05
2022-11-14T20:35:05.966Z,17.48
2022-11-14T20:37:51.690Z,18.90
2022-11-14T20:40:37.246Z,18.15
2022-11-14T20:43:22.590Z,18.40
2022-11-14T20:46:14.902Z,19.05
2022-11-14T20:49:00.017Z,19.50
2022-11-14T20:51:45.566Z,19.83
2022-11-14T20:54:31.238Z,18.73
2022-11-14T20:57:16.675Z,19.98
2022-11-14T21:00:02.115Z,20.15
2022-11-14T21:02:47.650Z,19.17
2022-11-14T21:05:33.077Z,20.10
2022-11-14T21:08:18.830Z,20.00
2022-11-14T21:11:06.973Z,19.13
2022-11-14T21:13:58.749Z,20.20
2022-11-14T21:16:44.542Z,19.33
2022-11-14T21:19:29.923Z,19.50
2022-11-14T21:22:15.400Z,20.13
2022-11-14T21:25:01.837Z,19.85
2022-11-14T21:27:47.410Z,19.50
2022-11-14T21:30:34.545Z,20.00
2022-11-14T21:33:20.042Z,20.15
2022-11-14T21:36:22.893Z,20.27
2022-11-14T21:39:16.492Z,19.95
2022-11-14T21:42:02.196Z,19.83
2022-11-14T21:44:47.724Z,19.60
2022-11-14T21:47:34.244Z,20.55
2022-11-14T21:50:19.893Z,20.87
2022-11-14T21:53:15.711Z,20.63
2022-11-14T21:56:11.694Z,21.08
2022-11-14T21:59:13.886Z,20.70
2022-11-14T22:02:18.062Z,21.60
2022-11-14T22:05:03.853Z,20.70
2022-11-14T22:07:49.177Z,20.67
2022-11-14T22:10:34.510Z,20.10
2022-11-14T22:13:20.055Z,20.45
2022-11-14T22:16:07.119Z,20.90
2022-11-14T22:18:52.926Z,19.60
2022-11-14T22:21:38.453Z,20.27
2022-11-14T22:24:23.899Z,20.83
2022-11-14T22:27:09.507Z,21.27
2022-11-14T22:29:54.842Z,20.65
2022-11-14T22:32:40.517Z,20.52
2022-11-14T22:35:25.887Z,20.92
2022-11-14T22:38:11.078Z,19.70
2022-11-14T22:40:57.657Z,21.10
2022-11-14T22:43:43.713Z,21.25
2022-11-14T22:46:29.427Z,20.05
2022-11-14T22:49:19.748Z,21.35
2022-11-14T22:52:06.310Z,21.38
2022-11-14T22:54:52.036Z,21.70
2022-11-14T22:57:37.443Z,20.63
2022-11-14T23:00:22.715Z,22.55
2022-11-14T23:03:08.140Z,22.05
2022-11-14T23:05:53.397Z,21.83
2022-11-14T23:08:38.939Z,21.27
2022-11-14T23:11:26.500Z,23.25
2022-11-14T23:14:14.240Z,21.95
2022-11-14T23:16:59.619Z,21.63
2022-11-14T23:19:44.981Z,22.17
2022-11-14T23:22:30.470Z,21.17
2022-11-14T23:25:16.076Z,20.63
2022-11-14T23:28:01.666Z,21.38
2022-11-14T23:30:47.045Z,21.20
2022-11-14T23:33:33.136Z,20.23
2022-11-14T23:36:19.247Z,21.10
2022-11-14T23:39:04.737Z,21.67
2022-11-14T23:41:50.271Z,20.95
2022-11-14T23:44:35.907Z,22.00
2022-11-14T23:47:21.308Z,21.00
2022-11-14T23:50:07.083Z,22.27
2022-11-14T23:52:52.226Z,23.48
2022-11-14T23:55:38.588Z,23.52
2022-11-14T23:58:25.248Z,23.45
